Indian Valley, VA (24105)

1:41 AM EDT on September 26, 2016 (GMT -0400)
Blue Ridge Mountains | | Change Station

Elev 2782 ft 36.88 °N, 80.50 °W | Updated 2 minutes ago

Overcast
Overcast
63.1 °F
Feels Like 63.1 °F
N
2.0
Wind Variable Wind from South
Gusts 2.0 mph

Today
High -- | Low -- °F
--% Chance of Precip.
Yesterday
High -- | Low -- °F
Precip. -- in
Pressure 30.18 in
Visibility 5.0 miles
Clouds Overcast 200 ft
Dew Point 62 °F
Humidity 97%
Rainfall 0.00 in
Snow Depth Not available.
7:13 AM 7:12 PM
Waning Crescent, 21% visible
METAR KHLX 260535Z AUTO 17003KT 5SM BR OVC002 18/18 A3018 RMK AO2 T01770177
Pressure 30.18 in
Visibility 5.0 miles
Clouds Overcast 200 ft
Dew Point 62 °F
Humidity 97%
Rainfall 0.00 in
Snow Depth Not available.
7:13 AM 7:12 PM
Waning Crescent, 21% visible
METAR KHLX 260535Z AUTO 17003KT 5SM BR OVC002 18/18 A3018 RMK AO2 T01770177

10-Day Weather Forecast

Almanac

Astronomy

Sep. 26, 2016 Rise Set
Actual Time
Civil Twilight
Nautical Twilight
Astronomical Twilight
Moon
Length of Visible Light
Length of Day
Tomorrow will be .
, % of the Moon is Illuminated

Today's Extremes

State Highs State Lows

Community

WunderPhotos

Upload Photos

1,941,852 photos uploaded!

WunderBlog® & News

Nearby

Air Quality

  Air Quality AQ Index Pollutant
Not available.

Snow Depth

Station Depth Elevation

Earthquake Activity

City Distance Mag. Time & Date
Minimum magnitude displayed is 2.5.

Coastal Water Temperatures

Place Temperature

Stations

Nearby Weather Stations

Station Location Temp. Windchill Dew Point Humidity Wind Precip. Elev Updated Type
                   

Watches & Warnings

There are currently no watches in effect.